Archival Weather

Yakutsk

Yakutsk, Russia (UEEE)

Report from: Sunday, February 5, 2023 6:00 PM JST
Current time: Tuesday, July 16, 2024 6:29 PM JST

Current weather – Weather history – Daily summaries
Weather forecast

Present weatherFog
Temperature-41.0°C (-41.8°F)
Dew point-45.0°C (-49.0°F)
Winds Calm
Visibility2952.8 ft. (900 m)
Altimeter30.12 in.Hg (1020 mB)
Precip. events QF 8:36 PM
Relative humidity65 %
Density altitude-7,792 ft. (-2,375 m)
Remarks No significant changes expected in the next two hours
Flight conditions Low Instrument Meteorological Conditions
Raw dataUEEE 050900Z 00000MPS 0900 0800NE R23L/1800N FG NSC M41/M45 Q1020 R23L/490150 NOSIG RMK QFE756
An error has occurred. This application may no longer respond until reloaded. Reload 🗙